Terminal Aerodrome Forecast
Issued by NWS Tallahassee, FL

Current Version | Previous Version | Text Only | Print | Product List | Glossary On
Versions: 1 2 3 4 5 6 7 8 9 10 11 12 13 14 15 16 17 18 19
116
FTUS42 KTAE 190520
TAFTLH
TAF
KTLH 190520Z 1906/2006 00000KT 1/2SM FG OVC002
     FM191400 VRB03KT 4SM BR BKN012
     FM191700 15007KT P6SM BKN050=

USA.gov is the U.S. government's official web portal to all federal, state and local government web resources and services.